createdAt,value
2019-05-03T00:00:16.544Z,14.33
2019-05-03T00:03:05.521Z,14.80
2019-05-03T00:05:47.889Z,15.00
2019-05-03T00:08:18.517Z,14.43
2019-05-03T00:10:49.014Z,15.00
2019-05-03T00:13:19.343Z,14.40
2019-05-03T00:16:02.706Z,14.40
2019-05-03T00:18:33.253Z,14.37
2019-05-03T00:21:03.487Z,15.10
2019-05-03T00:23:33.609Z,14.90
2019-05-03T00:26:04.444Z,14.83
2019-05-03T00:28:35.114Z,15.10
2019-05-03T00:31:05.387Z,14.60
2019-05-03T00:33:37.104Z,15.10
2019-05-03T00:36:35.608Z,15.17
2019-05-03T00:39:25.270Z,14.93
2019-05-03T00:41:55.846Z,14.07
2019-05-03T00:44:26.144Z,16.57
2019-05-03T00:46:56.402Z,15.83
2019-05-03T00:49:26.730Z,15.03
2019-05-03T00:51:57.067Z,14.67
2019-05-03T00:54:27.368Z,15.83
2019-05-03T00:56:58.310Z,14.70
2019-05-03T00:59:28.536Z,15.47
2019-05-03T01:01:59.894Z,16.43
2019-05-03T01:04:31.777Z,15.73
2019-05-03T01:07:02.316Z,15.53
2019-05-03T01:09:32.619Z,15.50
2019-05-03T01:12:02.878Z,16.00
2019-05-03T01:14:34.021Z,16.17
2019-05-03T01:17:04.858Z,16.03
2019-05-03T01:19:35.140Z,15.60
2019-05-03T01:22:05.422Z,16.50
2019-05-03T01:24:36.176Z,15.93
2019-05-03T01:27:07.539Z,15.63
2019-05-03T01:29:38.159Z,15.53
2019-05-03T01:32:08.417Z,15.97
2019-05-03T01:34:38.653Z,15.80
2019-05-03T01:37:09.121Z,16.03
2019-05-03T01:39:42.042Z,16.87
2019-05-03T01:42:12.335Z,16.07
2019-05-03T01:44:42.763Z,17.37
2019-05-03T01:47:18.923Z,17.13
2019-05-03T01:49:58.872Z,16.93
2019-05-03T01:52:35.699Z,16.80
2019-05-03T01:55:06.703Z,16.87
2019-05-03T01:57:36.910Z,16.93
2019-05-03T02:00:11.814Z,16.30
2019-05-03T02:02:49.301Z,15.83
2019-05-03T02:05:42.848Z,17.13
2019-05-03T02:08:14.742Z,16.07
2019-05-03T02:10:45.281Z,16.67
2019-05-03T02:13:15.575Z,16.73
2019-05-03T02:15:46.057Z,16.37
2019-05-03T02:18:16.395Z,16.80
2019-05-03T02:20:46.683Z,16.73
2019-05-03T02:23:17.961Z,16.13
2019-05-03T02:25:55.987Z,16.63
2019-05-03T02:28:22.022Z,16.10
2019-05-03T02:30:53.430Z,17.27
2019-05-03T02:33:24.152Z,16.80
2019-05-03T02:35:55.475Z,17.37
2019-05-03T02:38:26.630Z,16.97
2019-05-03T02:40:56.909Z,16.57
2019-05-03T02:43:31.742Z,16.20
2019-05-03T02:46:19.318Z,17.13
2019-05-03T02:48:58.108Z,17.17
2019-05-03T02:51:28.437Z,17.77
2019-05-03T02:53:58.719Z,18.27
2019-05-03T02:56:28.987Z,18.17
2019-05-03T02:58:59.469Z,18.03
2019-05-03T03:01:30.565Z,17.63
2019-05-03T03:04:02.096Z,17.13
2019-05-03T03:06:36.430Z,16.80
2019-05-03T03:09:07.074Z,17.80
2019-05-03T03:11:39.734Z,17.00
2019-05-03T03:14:16.470Z,18.37
2019-05-03T03:16:49.353Z,18.57
2019-05-03T03:19:21.623Z,18.47
2019-05-03T03:21:56.228Z,17.80
2019-05-03T03:24:30.141Z,19.23
2019-05-03T03:27:01.885Z,18.33
2019-05-03T03:29:35.928Z,19.33
2019-05-03T03:32:19.730Z,19.37
2019-05-03T03:35:20.778Z,19.23
2019-05-03T03:37:48.663Z,19.43
2019-05-03T03:40:20.046Z,18.73
2019-05-03T03:42:52.724Z,19.37
2019-05-03T03:45:25.408Z,19.70
2019-05-03T03:47:56.351Z,18.67
2019-05-03T03:50:27.470Z,19.63
2019-05-03T03:53:00.205Z,20.10
2019-05-03T03:55:32.308Z,20.03
2019-05-03T03:58:06.211Z,19.67
2019-05-03T04:00:36.383Z,19.23
2019-05-03T04:03:06.865Z,20.67
2019-05-03T04:05:37.123Z,20.60
2019-05-03T04:08:08.307Z,19.20
2019-05-03T04:10:39.654Z,21.13
2019-05-03T04:13:11.551Z,20.20
2019-05-03T04:15:57.784Z,20.37
2019-05-03T04:18:59.447Z,20.13
2019-05-03T04:21:29.726Z,21.13
2019-05-03T04:24:00.536Z,20.33
2019-05-03T04:26:30.786Z,20.77
2019-05-03T04:29:05.087Z,20.70
2019-05-03T04:31:36.733Z,19.27
2019-05-03T04:34:07.275Z,20.37
2019-05-03T04:36:37.917Z,20.80
2019-05-03T04:39:09.838Z,21.00
2019-05-03T04:41:40.074Z,22.17
2019-05-03T04:44:10.340Z,20.93
2019-05-03T04:46:41.150Z,21.03
2019-05-03T04:49:11.322Z,20.20
2019-05-03T04:51:41.912Z,17.27
2019-05-03T04:54:26.692Z,16.27
2019-05-03T04:56:56.992Z,16.10
2019-05-03T04:59:27.290Z,15.40
2019-05-03T05:01:57.523Z,14.27
2019-05-03T05:04:27.830Z,13.83
2019-05-03T05:06:58.083Z,12.40
2019-05-03T05:09:28.360Z,12.23
2019-05-03T05:11:59.012Z,12.07
2019-05-03T05:14:29.218Z,12.63
2019-05-03T05:16:59.530Z,12.73
2019-05-03T05:19:55.198Z,11.03
2019-05-03T05:22:28.527Z,11.07
2019-05-03T05:25:00.564Z,11.47
2019-05-03T05:27:48.294Z,10.83
2019-05-03T05:30:10.945Z,10.33
2019-05-03T05:32:41.238Z,9.67
2019-05-03T05:35:11.522Z,9.40
2019-05-03T05:37:41.810Z,9.47
2019-05-03T05:40:12.613Z,9.27
2019-05-03T05:42:42.839Z,8.83
2019-05-03T05:45:15.202Z,9.07
2019-05-03T05:47:50.591Z,8.63
2019-05-03T05:50:30.422Z,9.30
2019-05-03T05:53:00.688Z,9.10
2019-05-03T05:55:59.006Z,8.87
2019-05-03T05:58:38.824Z,8.70
2019-05-03T06:01:30.403Z,7.00
2019-05-03T06:04:00.891Z,7.30
2019-05-03T06:06:46.929Z,7.40
2019-05-03T06:09:30.145Z,7.03
2019-05-03T06:12:14.860Z,6.60
2019-05-03T06:14:49.937Z,6.10
2019-05-03T06:17:39.178Z,4.50
2019-05-03T06:20:18.041Z,5.07
2019-05-03T06:22:55.108Z,4.63
2019-05-03T06:25:35.215Z,4.13
2019-05-03T06:28:17.687Z,3.80
2019-05-03T06:31:04.708Z,3.80
2019-05-03T06:33:34.809Z,3.77
2019-05-03T06:36:06.371Z,3.57
2019-05-03T06:38:36.631Z,3.07
2019-05-03T06:41:07.059Z,3.30
2019-05-03T06:43:39.566Z,3.30
2019-05-03T06:46:09.438Z,3.13
2019-05-03T06:48:39.687Z,2.97
2019-05-03T06:51:12.590Z,3.27
2019-05-03T06:53:46.704Z,2.90
2019-05-03T06:56:14.848Z,3.20
2019-05-03T06:58:45.345Z,2.50
2019-05-03T07:01:28.541Z,2.80
2019-05-03T07:04:09.539Z,2.70
2019-05-03T07:07:08.256Z,3.00
2019-05-03T07:09:46.321Z,2.83
2019-05-03T07:12:17.089Z,2.87
2019-05-03T07:14:50.279Z,2.70
2019-05-03T07:17:19.301Z,2.77
2019-05-03T07:19:49.552Z,2.97
2019-05-03T07:22:19.863Z,3.20
2019-05-03T07:24:50.140Z,3.00
2019-05-03T07:27:21.511Z,2.87
2019-05-03T07:29:51.961Z,3.10
2019-05-03T07:32:24.158Z,3.00
2019-05-03T07:34:55.585Z,2.80
2019-05-03T07:37:25.963Z,2.90
2019-05-03T07:39:56.195Z,2.93
2019-05-03T07:42:26.463Z,3.10
2019-05-03T07:44:56.779Z,2.77
2019-05-03T07:47:27.069Z,3.20
2019-05-03T07:49:57.249Z,3.00
2019-05-03T07:52:27.499Z,3.43
2019-05-03T07:54:57.744Z,3.20
2019-05-03T07:57:39.539Z,3.40
2019-05-03T08:00:12.531Z,3.50
2019-05-03T08:02:44.633Z,3.23
2019-05-03T08:05:15.536Z,3.00
2019-05-03T08:07:46.308Z,3.40
2019-05-03T08:10:16.754Z,3.20
2019-05-03T08:12:47.121Z,3.40
2019-05-03T08:15:17.520Z,3.33
2019-05-03T08:17:47.877Z,3.17
2019-05-03T08:20:18.119Z,3.17
2019-05-03T08:22:48.564Z,3.37
2019-05-03T08:25:18.870Z,3.37
2019-05-03T08:27:49.182Z,3.53
2019-05-03T08:30:25.290Z,3.40
2019-05-03T08:33:08.811Z,3.40
2019-05-03T08:35:41.658Z,3.60
2019-05-03T08:38:11.916Z,3.30
2019-05-03T08:40:46.227Z,3.77
2019-05-03T08:43:18.202Z,3.83
2019-05-03T08:45:48.546Z,3.70
2019-05-03T08:48:18.822Z,3.70
2019-05-03T08:50:49.078Z,3.60
2019-05-03T08:53:19.597Z,3.93
2019-05-03T08:55:49.860Z,3.47
2019-05-03T08:58:20.163Z,3.70
2019-05-03T09:00:50.403Z,4.13
2019-05-03T09:03:20.676Z,3.77
2019-05-03T09:05:50.951Z,3.60
2019-05-03T09:08:21.180Z,4.00
2019-05-03T09:11:00.787Z,3.30
2019-05-03T09:13:48.530Z,3.40
2019-05-03T09:16:20.103Z,4.07
2019-05-03T09:18:50.726Z,3.57
2019-05-03T09:21:20.898Z,3.53
2019-05-03T09:23:52.438Z,3.23
2019-05-03T09:26:22.934Z,3.13
2019-05-03T09:28:55.471Z,3.50
2019-05-03T09:31:25.372Z,3.20
2019-05-03T09:33:55.727Z,3.17
2019-05-03T09:36:26.025Z,3.67
2019-05-03T09:38:56.327Z,3.70
2019-05-03T09:41:26.810Z,3.40
2019-05-03T09:43:57.073Z,3.00
2019-05-03T09:46:27.363Z,2.73
2019-05-03T09:49:09.575Z,3.23
2019-05-03T09:51:29.711Z,2.80
2019-05-03T09:54:06.644Z,2.90
2019-05-03T09:56:57.735Z,3.03
2019-05-03T09:59:27.597Z,2.90
2019-05-03T10:01:58.678Z,2.90
2019-05-03T10:04:28.935Z,3.87
2019-05-03T10:06:59.207Z,3.37
2019-05-03T10:09:29.564Z,3.20
2019-05-03T10:12:00.519Z,3.23
2019-05-03T10:14:30.947Z,3.20
2019-05-03T10:17:10.182Z,3.07
2019-05-03T10:19:40.615Z,3.20
2019-05-03T10:22:11.822Z,3.17
2019-05-03T10:24:42.125Z,3.50
2019-05-03T10:27:12.709Z,2.97
2019-05-03T10:29:44.722Z,3.07
2019-05-03T10:32:35.342Z,3.07
2019-05-03T10:35:08.550Z,3.07
2019-05-03T10:37:39.974Z,3.30
2019-05-03T10:40:11.301Z,3.20
2019-05-03T10:42:41.698Z,3.10
2019-05-03T10:45:11.980Z,3.60
2019-05-03T10:47:42.483Z,3.10
2019-05-03T10:50:12.763Z,3.20
2019-05-03T10:52:48.631Z,3.00
2019-05-03T10:55:18.903Z,3.10
2019-05-03T10:58:07.507Z,3.60
2019-05-03T11:00:48.360Z,3.53
2019-05-03T11:03:10.966Z,3.40
2019-05-03T11:05:41.463Z,3.57
2019-05-03T11:08:11.749Z,3.17
2019-05-03T11:10:42.215Z,3.40
2019-05-03T11:13:12.521Z,3.53
2019-05-03T11:15:44.389Z,3.50
2019-05-03T11:18:14.883Z,3.20
2019-05-03T11:20:45.413Z,3.03
2019-05-03T11:23:16.449Z,2.60
2019-05-03T11:25:46.731Z,2.80
2019-05-03T11:28:22.432Z,3.27
2019-05-03T11:30:59.073Z,3.43
2019-05-03T11:33:35.383Z,3.20
2019-05-03T11:36:14.979Z,2.80
2019-05-03T11:38:47.653Z,2.20
2019-05-03T11:41:29.578Z,2.73
2019-05-03T11:43:49.897Z,2.60
2019-05-03T11:46:20.180Z,3.33
2019-05-03T11:48:50.463Z,2.50
2019-05-03T11:51:20.754Z,2.73
2019-05-03T11:53:51.132Z,2.30
2019-05-03T11:56:22.417Z,2.40
2019-05-03T11:58:54.886Z,2.50
2019-05-03T12:01:44.935Z,2.40
2019-05-03T12:04:15.502Z,2.37
2019-05-03T12:06:45.812Z,2.63
2019-05-03T12:09:16.220Z,2.07
2019-05-03T12:11:46.598Z,2.20
2019-05-03T12:14:16.970Z,2.47
2019-05-03T12:17:16.567Z,2.33
2019-05-03T12:19:32.115Z,2.43
2019-05-03T12:22:06.444Z,2.77
2019-05-03T12:24:37.904Z,2.37
2019-05-03T12:27:08.582Z,2.30
2019-05-03T12:29:38.896Z,2.33
2019-05-03T12:32:09.592Z,2.03
2019-05-03T12:34:39.837Z,2.10
2019-05-03T12:37:10.044Z,2.30
2019-05-03T12:39:40.831Z,2.20
2019-05-03T12:42:11.339Z,2.43
2019-05-03T12:44:41.659Z,3.10
2019-05-03T12:47:12.138Z,2.40
2019-05-03T12:49:42.555Z,2.23
2019-05-03T12:52:16.179Z,2.10
2019-05-03T12:54:45.804Z,2.20
2019-05-03T12:57:16.376Z,2.00
2019-05-03T12:59:58.799Z,2.37
2019-05-03T13:02:34.934Z,1.90
2019-05-03T13:05:05.541Z,2.10
2019-05-03T13:07:57.683Z,2.30
2019-05-03T13:10:28.054Z,2.10
2019-05-03T13:12:58.403Z,2.73
2019-05-03T13:15:28.722Z,2.10
2019-05-03T13:17:59.221Z,1.80
2019-05-03T13:20:29.482Z,2.77
2019-05-03T13:22:59.840Z,2.00
2019-05-03T13:25:30.151Z,2.40
2019-05-03T13:28:00.432Z,2.03
2019-05-03T13:30:30.694Z,1.47
2019-05-03T13:33:01.018Z,1.80
2019-05-03T13:35:31.451Z,1.63
2019-05-03T13:38:02.009Z,1.83
2019-05-03T13:40:32.300Z,1.77
2019-05-03T13:43:04.452Z,1.87
2019-05-03T13:45:35.720Z,2.00
2019-05-03T13:48:06.000Z,1.80
2019-05-03T13:50:36.290Z,1.90
2019-05-03T13:53:06.620Z,1.57
2019-05-03T13:55:37.144Z,1.80
2019-05-03T13:58:07.411Z,2.03
2019-05-03T14:00:38.862Z,1.80
2019-05-03T14:03:09.117Z,2.00
2019-05-03T14:05:39.444Z,2.60
2019-05-03T14:08:09.731Z,2.20
2019-05-03T14:10:40.056Z,2.10
2019-05-03T14:13:10.619Z,1.93
2019-05-03T14:15:40.841Z,2.00
2019-05-03T14:18:11.217Z,1.73
2019-05-03T14:21:00.549Z,2.30
2019-05-03T14:23:34.566Z,1.93
2019-05-03T14:26:05.201Z,2.30
2019-05-03T14:28:35.944Z,1.80
2019-05-03T14:31:06.229Z,1.90
2019-05-03T14:33:36.673Z,1.83
2019-05-03T14:36:08.058Z,2.30
2019-05-03T14:38:38.633Z,1.90
2019-05-03T14:41:08.899Z,1.87
2019-05-03T14:43:39.430Z,1.70
2019-05-03T14:46:09.713Z,1.83
2019-05-03T14:48:40.171Z,1.60
2019-05-03T14:51:10.416Z,1.70
2019-05-03T14:53:41.223Z,1.80
2019-05-03T14:56:16.813Z,1.90
2019-05-03T14:59:08.903Z,2.07
2019-05-03T15:01:44.730Z,1.93
2019-05-03T15:04:15.225Z,1.73
2019-05-03T15:06:45.995Z,1.57
2019-05-03T15:09:19.123Z,1.77
2019-05-03T15:11:49.657Z,1.53
2019-05-03T15:14:19.856Z,2.00
2019-05-03T15:16:50.288Z,2.07
2019-05-03T15:19:20.571Z,2.10
2019-05-03T15:21:51.088Z,1.50
2019-05-03T15:24:21.407Z,1.90
2019-05-03T15:26:51.687Z,1.90
2019-05-03T15:29:22.354Z,1.70
2019-05-03T15:31:52.880Z,2.27
2019-05-03T15:34:23.166Z,1.60
2019-05-03T15:36:54.719Z,1.63
2019-05-03T15:39:25.109Z,2.10
2019-05-03T15:41:55.707Z,1.80
2019-05-03T15:44:34.201Z,2.20
2019-05-03T15:47:11.833Z,1.90
2019-05-03T15:49:42.070Z,1.83
2019-05-03T15:52:12.358Z,2.00
2019-05-03T15:54:44.436Z,2.17
2019-05-03T15:57:16.076Z,1.87
2019-05-03T15:59:46.372Z,1.83
2019-05-03T16:02:16.663Z,1.87
2019-05-03T16:04:46.995Z,2.30
2019-05-03T16:07:17.676Z,2.00
2019-05-03T16:09:48.022Z,2.17
2019-05-03T16:12:18.340Z,1.80
2019-05-03T16:14:48.736Z,2.07
2019-05-03T16:17:19.082Z,2.17
2019-05-03T16:19:49.540Z,2.27
2019-05-03T16:22:21.102Z,1.70
2019-05-03T16:24:51.683Z,1.83
2019-05-03T16:27:47.674Z,1.70
2019-05-03T16:30:45.280Z,1.60
2019-05-03T16:33:26.600Z,1.83
2019-05-03T16:35:47.139Z,1.70
2019-05-03T16:38:17.484Z,1.70
2019-05-03T16:40:47.796Z,1.80
2019-05-03T16:43:18.298Z,1.80
2019-05-03T16:45:48.611Z,1.87
2019-05-03T16:48:19.170Z,2.00
2019-05-03T16:50:49.618Z,2.20
2019-05-03T16:53:21.217Z,2.23
2019-05-03T16:55:51.544Z,2.10
2019-05-03T16:58:24.732Z,2.10
2019-05-03T17:00:55.395Z,2.17
2019-05-03T17:03:39.284Z,2.13
2019-05-03T17:06:17.654Z,2.23
2019-05-03T17:09:14.551Z,2.00
2019-05-03T17:12:07.110Z,2.13
2019-05-03T17:14:38.515Z,2.03
2019-05-03T17:17:08.802Z,2.17
2019-05-03T17:19:39.576Z,2.40
2019-05-03T17:22:10.582Z,2.13
2019-05-03T17:24:40.997Z,2.23
2019-05-03T17:27:11.435Z,2.40
2019-05-03T17:29:44.419Z,2.10
2019-05-03T17:32:15.350Z,2.23
2019-05-03T17:34:46.222Z,2.10
2019-05-03T17:37:16.551Z,2.40
2019-05-03T17:40:11.905Z,2.40
2019-05-03T17:43:14.664Z,2.30
2019-05-03T17:45:50.953Z,2.60
2019-05-03T17:48:21.219Z,2.70
2019-05-03T17:50:51.441Z,2.77
2019-05-03T17:53:41.189Z,3.53
2019-05-03T17:56:22.156Z,2.93
2019-05-03T17:58:57.265Z,3.70
2019-05-03T18:01:49.395Z,3.10
2019-05-03T18:04:30.649Z,3.37
2019-05-03T18:07:14.965Z,3.40
2019-05-03T18:09:45.434Z,3.80
2019-05-03T18:12:16.082Z,3.33
2019-05-03T18:14:46.552Z,3.27
2019-05-03T18:17:17.017Z,3.83
2019-05-03T18:19:48.335Z,3.83
2019-05-03T18:22:18.769Z,3.80
2019-05-03T18:24:50.267Z,3.93
2019-05-03T18:27:21.057Z,3.83
2019-05-03T18:29:51.409Z,4.20
2019-05-03T18:32:21.779Z,4.07
2019-05-03T18:34:52.108Z,4.37
2019-05-03T18:37:24.360Z,4.87
2019-05-03T18:39:54.669Z,4.63
2019-05-03T18:42:31.477Z,4.57
2019-05-03T18:45:08.123Z,4.50
2019-05-03T18:47:38.580Z,4.07
2019-05-03T18:50:08.882Z,4.10
2019-05-03T18:52:39.281Z,4.40
2019-05-03T18:55:09.859Z,3.80
2019-05-03T18:57:40.423Z,4.30
2019-05-03T19:00:11.383Z,4.23
2019-05-03T19:02:44.415Z,4.13
2019-05-03T19:05:16.241Z,4.00
2019-05-03T19:08:02.125Z,4.20
2019-05-03T19:11:00.578Z,3.73
2019-05-03T19:13:35.123Z,4.10
2019-05-03T19:16:18.874Z,4.17
2019-05-03T19:18:49.707Z,4.30
2019-05-03T19:21:20.204Z,4.13
2019-05-03T19:23:50.949Z,4.20
2019-05-03T19:26:21.399Z,3.60
2019-05-03T19:28:52.308Z,3.83
2019-05-03T19:31:25.158Z,3.30
2019-05-03T19:33:56.250Z,3.63
2019-05-03T19:36:26.551Z,3.13
2019-05-03T19:38:57.018Z,3.40
2019-05-03T19:41:27.405Z,3.00
2019-05-03T19:43:58.070Z,2.80
2019-05-03T19:46:28.460Z,3.10
2019-05-03T19:48:58.942Z,3.23
2019-05-03T19:51:29.389Z,3.00
2019-05-03T19:53:59.876Z,3.03
2019-05-03T19:56:30.406Z,2.77
2019-05-03T19:59:06.512Z,2.40
2019-05-03T20:01:43.391Z,2.70
2019-05-03T20:04:42.416Z,3.03
2019-05-03T20:07:30.580Z,2.93
2019-05-03T20:10:00.964Z,3.37
2019-05-03T20:12:31.225Z,3.43
2019-05-03T20:15:01.869Z,3.70
2019-05-03T20:17:34.430Z,3.70
2019-05-03T20:20:04.795Z,4.07
2019-05-03T20:22:35.225Z,3.83
2019-05-03T20:25:06.313Z,4.03
2019-05-03T20:27:36.757Z,5.20
2019-05-03T20:30:08.061Z,5.27
2019-05-03T20:32:38.516Z,6.00
2019-05-03T20:35:16.727Z,6.80
2019-05-03T20:37:41.558Z,7.07
2019-05-03T20:40:12.058Z,7.83
2019-05-03T20:43:04.874Z,8.70
2019-05-03T20:45:54.768Z,9.10
2019-05-03T20:48:25.432Z,10.13
2019-05-03T20:50:55.793Z,8.17
2019-05-03T20:53:26.362Z,8.83
2019-05-03T20:55:56.822Z,8.57
2019-05-03T20:58:27.380Z,8.33
2019-05-03T21:00:59.003Z,9.23
2019-05-03T21:03:29.294Z,8.90
2019-05-03T21:06:02.321Z,9.00
2019-05-03T21:08:52.279Z,8.53
2019-05-03T21:11:12.171Z,9.03
2019-05-03T21:13:42.653Z,8.77
2019-05-03T21:16:38.363Z,8.60
2019-05-03T21:19:30.458Z,8.87
2019-05-03T21:22:06.517Z,8.33
2019-05-03T21:24:42.291Z,8.73
2019-05-03T21:27:13.718Z,8.10
2019-05-03T21:29:52.026Z,8.17
2019-05-03T21:32:22.463Z,8.93
2019-05-03T21:34:52.719Z,8.93
2019-05-03T21:37:24.488Z,8.33
2019-05-03T21:39:55.567Z,8.43
2019-05-03T21:42:26.417Z,9.07
2019-05-03T21:44:56.691Z,8.47
2019-05-03T21:47:39.765Z,8.77
2019-05-03T21:50:14.640Z,9.57
2019-05-03T21:52:45.779Z,8.50
2019-05-03T21:55:16.437Z,8.53
2019-05-03T21:57:46.735Z,9.57
2019-05-03T22:00:19.203Z,9.43
2019-05-03T22:02:51.077Z,8.73
2019-05-03T22:05:21.449Z,9.07
2019-05-03T22:07:51.857Z,9.37
2019-05-03T22:10:25.800Z,8.57
2019-05-03T22:12:56.104Z,9.00
2019-05-03T22:15:37.271Z,9.43
2019-05-03T22:18:15.187Z,9.60
2019-05-03T22:21:05.691Z,9.60
2019-05-03T22:24:01.012Z,8.93
2019-05-03T22:26:56.749Z,9.57
2019-05-03T22:29:27.040Z,9.20
2019-05-03T22:31:57.315Z,9.80
2019-05-03T22:34:28.180Z,10.20
2019-05-03T22:36:58.449Z,10.10
2019-05-03T22:39:28.695Z,10.20
2019-05-03T22:41:59.000Z,9.80
2019-05-03T22:44:29.261Z,10.37
2019-05-03T22:46:59.628Z,10.10
2019-05-03T22:49:29.896Z,10.00
2019-05-03T22:52:00.163Z,10.33
2019-05-03T22:54:30.616Z,10.23
2019-05-03T22:57:01.124Z,10.03
2019-05-03T22:59:31.394Z,10.87
2019-05-03T23:02:01.667Z,10.17
2019-05-03T23:04:31.960Z,10.97
2019-05-03T23:07:02.283Z,10.03
2019-05-03T23:09:32.663Z,9.50
2019-05-03T23:12:03.112Z,10.57
2019-05-03T23:14:34.742Z,10.20
2019-05-03T23:17:06.306Z,11.10
2019-05-03T23:19:38.134Z,11.00
2019-05-03T23:22:22.133Z,10.50
2019-05-03T23:24:52.322Z,10.70
2019-05-03T23:27:24.909Z,11.20
2019-05-03T23:29:54.676Z,12.37
2019-05-03T23:32:25.638Z,11.97
2019-05-03T23:34:55.890Z,10.63
2019-05-03T23:37:26.191Z,11.33
2019-05-03T23:39:56.440Z,11.47
2019-05-03T23:42:26.730Z,9.30
2019-05-03T23:44:58.027Z,10.20
2019-05-03T23:47:36.937Z,9.87
2019-05-03T23:50:10.146Z,10.27
2019-05-03T23:52:40.392Z,9.87
2019-05-03T23:55:30.350Z,9.83
2019-05-03T23:58:00.624Z,9.87
